createdAt,value
2019-02-22T00:02:33.812Z,8.57
2019-02-22T00:05:04.067Z,8.56
2019-02-22T00:07:34.260Z,8.64
2019-02-22T00:10:05.552Z,8.54
2019-02-22T00:12:35.657Z,8.47
2019-02-22T00:15:06.788Z,8.37
2019-02-22T00:17:36.912Z,8.32
2019-02-22T00:20:07.566Z,8.22
2019-02-22T00:22:37.815Z,8.20
2019-02-22T00:25:09.321Z,8.13
2019-02-22T00:27:39.486Z,8.11
2019-02-22T00:30:09.728Z,8.18
2019-02-22T00:32:42.459Z,8.10
2019-02-22T00:35:12.178Z,8.02
2019-02-22T00:37:42.237Z,8.01
2019-02-22T00:40:12.379Z,8.05
2019-02-22T00:42:42.467Z,8.05
2019-02-22T00:45:17.757Z,8.08
2019-02-22T00:47:50.406Z,8.14
2019-02-22T00:50:20.489Z,8.16
2019-02-22T00:52:51.249Z,8.13
2019-02-22T00:55:24.565Z,8.16
2019-02-22T00:57:57.101Z,8.19
2019-02-22T01:00:27.269Z,8.08
2019-02-22T01:02:57.366Z,8.13
2019-02-22T01:05:28.866Z,8.39
2019-02-22T01:07:59.266Z,8.43
2019-02-22T01:10:31.520Z,8.41
2019-02-22T01:13:01.295Z,8.45
2019-02-22T01:15:31.487Z,8.45
2019-02-22T01:18:01.947Z,8.40
2019-02-22T01:20:32.124Z,8.42
2019-02-22T01:23:02.292Z,8.50
2019-02-22T01:25:32.407Z,8.48
2019-02-22T01:28:02.764Z,8.53
2019-02-22T01:30:32.915Z,8.53
2019-02-22T01:33:03.791Z,8.71
2019-02-22T01:35:34.022Z,8.72
2019-02-22T01:38:04.126Z,8.83
2019-02-22T01:40:43.265Z,9.15
2019-02-22T01:43:06.115Z,9.28
2019-02-22T01:45:36.239Z,9.28
2019-02-22T01:48:06.460Z,9.23
2019-02-22T01:50:36.560Z,9.32
2019-02-22T01:53:06.654Z,9.46
2019-02-22T01:55:37.084Z,9.62
2019-02-22T01:58:07.206Z,9.60
2019-02-22T02:00:37.411Z,9.75
2019-02-22T02:03:07.484Z,9.82
2019-02-22T02:05:37.936Z,9.88
2019-02-22T02:08:08.089Z,9.92
2019-02-22T02:10:38.201Z,9.88
2019-02-22T02:13:08.371Z,9.87
2019-02-22T02:15:38.455Z,9.77
2019-02-22T02:18:08.554Z,9.80
2019-02-22T02:20:38.990Z,9.85
2019-02-22T02:23:09.115Z,10.05
2019-02-22T02:25:39.214Z,10.04
2019-02-22T02:28:09.371Z,10.01
2019-02-22T02:30:39.474Z,10.01
2019-02-22T02:33:09.593Z,10.15
2019-02-22T02:35:39.985Z,10.13
2019-02-22T02:38:10.116Z,10.15
2019-02-22T02:40:41.531Z,10.13
2019-02-22T02:43:11.648Z,10.07
2019-02-22T02:45:41.763Z,10.01
2019-02-22T02:48:11.897Z,9.96
2019-02-22T02:50:42.307Z,9.87
2019-02-22T02:53:12.505Z,9.96
2019-02-22T02:55:42.620Z,9.99
2019-02-22T02:58:12.746Z,9.97
2019-02-22T03:00:43.150Z,9.92
2019-02-22T03:03:13.267Z,9.89
2019-02-22T03:06:02.709Z,9.85
2019-02-22T03:08:36.344Z,9.75
2019-02-22T03:11:06.728Z,9.65
2019-02-22T03:13:37.116Z,9.55
2019-02-22T03:16:07.164Z,9.43
2019-02-22T03:18:37.321Z,9.32
2019-02-22T03:21:07.414Z,9.27
2019-02-22T03:23:37.825Z,9.16
2019-02-22T03:26:07.966Z,9.07
2019-02-22T03:28:38.055Z,9.06
2019-02-22T03:31:08.225Z,9.04
2019-02-22T03:33:38.302Z,9.08
2019-02-22T03:36:08.452Z,9.08
2019-02-22T03:38:38.957Z,9.22
2019-02-22T03:41:09.088Z,9.33
2019-02-22T03:43:39.280Z,9.42
2019-02-22T03:46:09.400Z,9.43
2019-02-22T03:48:39.518Z,9.69
2019-02-22T03:51:09.633Z,9.72
2019-02-22T03:53:54.087Z,9.68
2019-02-22T03:56:24.187Z,9.82
2019-02-22T03:58:54.299Z,9.81
2019-02-22T04:01:24.723Z,9.82
2019-02-22T04:03:54.851Z,9.80
2019-02-22T04:06:24.977Z,9.85
2019-02-22T04:08:55.094Z,9.90
2019-02-22T04:11:25.670Z,9.91
2019-02-22T04:13:55.864Z,9.91
2019-02-22T04:16:26.060Z,9.90
2019-02-22T04:18:56.165Z,9.82
2019-02-22T04:21:26.654Z,9.75
2019-02-22T04:23:56.728Z,9.76
2019-02-22T04:26:26.869Z,9.79
2019-02-22T04:28:56.984Z,9.70
2019-02-22T04:31:27.105Z,9.68
2019-02-22T04:33:57.238Z,9.74
2019-02-22T04:36:27.699Z,9.63
2019-02-22T04:38:57.841Z,9.61
2019-02-22T04:41:28.013Z,9.61
2019-02-22T04:43:58.266Z,9.61
2019-02-22T04:46:28.949Z,9.50
2019-02-22T04:48:59.054Z,9.48
2019-02-22T04:51:29.222Z,9.47
2019-02-22T04:53:59.359Z,9.35
2019-02-22T04:56:29.541Z,9.30
2019-02-22T04:58:59.640Z,9.29
2019-02-22T05:01:29.831Z,9.24
2019-02-22T05:03:59.945Z,9.37
2019-02-22T05:06:30.370Z,9.32
2019-02-22T05:09:00.550Z,9.34
2019-02-22T05:11:33.447Z,9.25
2019-02-22T05:14:05.092Z,9.18
2019-02-22T05:16:35.210Z,9.24
2019-02-22T05:19:05.351Z,9.16
2019-02-22T05:21:35.552Z,9.12
2019-02-22T05:24:05.913Z,9.01
2019-02-22T05:26:36.047Z,8.91
2019-02-22T05:29:06.141Z,8.88
2019-02-22T05:31:36.435Z,8.82
2019-02-22T05:34:06.590Z,8.77
2019-02-22T05:36:36.730Z,8.74
2019-02-22T05:39:18.583Z,8.77
2019-02-22T05:41:39.341Z,8.78
2019-02-22T05:44:09.449Z,8.73
2019-02-22T05:46:39.551Z,8.74
2019-02-22T05:49:09.763Z,8.72
2019-02-22T05:51:39.890Z,8.66
2019-02-22T05:54:10.361Z,8.63
2019-02-22T05:56:40.500Z,8.63
2019-02-22T05:59:13.515Z,8.63
2019-02-22T06:01:43.929Z,8.61
2019-02-22T06:04:17.590Z,8.62
2019-02-22T06:06:49.800Z,8.58
2019-02-22T06:09:20.133Z,8.61
2019-02-22T06:11:50.290Z,8.58
2019-02-22T06:14:20.942Z,8.57
2019-02-22T06:16:51.065Z,8.64
2019-02-22T06:19:21.525Z,8.59
2019-02-22T06:21:51.851Z,8.62
2019-02-22T06:24:22.028Z,8.58
2019-02-22T06:26:52.255Z,8.57
2019-02-22T06:29:22.590Z,8.48
2019-02-22T06:31:53.876Z,8.49
2019-02-22T06:34:24.279Z,8.51
2019-02-22T06:37:01.638Z,8.53
2019-02-22T06:39:27.440Z,8.49
2019-02-22T06:41:57.819Z,8.54
2019-02-22T06:44:27.993Z,8.58
2019-02-22T06:47:00.922Z,8.54
2019-02-22T06:49:44.442Z,8.59
2019-02-22T06:52:20.920Z,8.60
2019-02-22T06:54:48.207Z,8.62
2019-02-22T06:57:18.634Z,8.66
2019-02-22T06:59:48.935Z,8.59
2019-02-22T07:02:19.242Z,8.62
2019-02-22T07:04:49.367Z,8.62
2019-02-22T07:07:19.590Z,8.61
2019-02-22T07:09:49.711Z,8.63
2019-02-22T07:12:56.206Z,8.68
2019-02-22T07:15:17.958Z,8.72
2019-02-22T07:17:48.080Z,8.72
2019-02-22T07:20:18.199Z,8.80
2019-02-22T07:22:48.356Z,8.73
2019-02-22T07:25:18.477Z,8.69
2019-02-22T07:30:27.721Z,8.78
2019-02-22T07:32:57.974Z,8.81
2019-02-22T07:35:47.249Z,8.77
2019-02-22T07:38:17.390Z,8.76
2019-02-22T07:40:47.556Z,8.74
2019-02-22T07:43:17.656Z,8.81
2019-02-22T07:46:06.847Z,8.85
2019-02-22T07:48:37.141Z,8.82
2019-02-22T07:51:26.550Z,8.84
2019-02-22T07:54:15.740Z,8.85
2019-02-22T07:56:48.704Z,8.80
2019-02-22T07:59:19.259Z,8.83
2019-02-22T08:01:49.459Z,8.81
2019-02-22T08:04:38.686Z,8.82
2019-02-22T08:07:11.928Z,8.88
2019-02-22T08:10:01.128Z,8.96
2019-02-22T08:12:50.555Z,8.96
2019-02-22T08:15:40.039Z,8.95
2019-02-22T08:18:10.178Z,8.07
2019-02-22T08:20:59.467Z,9.03
2019-02-22T08:23:29.927Z,9.01
2019-02-22T08:26:19.664Z,9.00
2019-02-22T08:28:52.881Z,9.09
2019-02-22T08:31:42.134Z,9.21
2019-02-22T08:34:12.266Z,9.28
2019-02-22T08:36:42.393Z,9.46
2019-02-22T08:39:31.584Z,9.48
2019-02-22T08:42:01.814Z,9.65
2019-02-22T08:44:52.272Z,9.59
2019-02-22T08:47:44.114Z,9.63
2019-02-22T08:50:14.635Z,9.70
2019-02-22T08:52:44.803Z,9.85
2019-02-22T08:55:15.236Z,9.99
2019-02-22T08:58:04.664Z,10.04
2019-02-22T09:00:53.836Z,10.05
2019-02-22T09:03:24.033Z,10.07
2019-02-22T09:05:54.954Z,10.08
2019-02-22T09:08:25.520Z,10.06
2019-02-22T09:11:00.468Z,10.06
2019-02-22T09:13:27.717Z,10.13
2019-02-22T09:16:16.881Z,10.14
2019-02-22T09:19:06.047Z,9.33
2019-02-22T09:21:47.343Z,10.43
2019-02-22T09:24:17.834Z,10.28
2019-02-22T09:26:48.151Z,10.29
2019-02-22T09:29:18.296Z,10.23
2019-02-22T09:31:48.408Z,10.25
2019-02-22T09:34:18.799Z,10.29
2019-02-22T09:37:07.964Z,10.39
2019-02-22T09:39:38.570Z,10.66
2019-02-22T09:42:27.838Z,10.96
2019-02-22T09:44:57.948Z,11.08
2019-02-22T09:47:28.059Z,11.45
2019-02-22T09:50:17.255Z,11.67
2019-02-22T09:52:48.098Z,11.72
2019-02-22T09:55:37.335Z,11.53
2019-02-22T09:58:26.772Z,11.30
2019-02-22T10:00:56.927Z,11.27
2019-02-22T10:03:46.396Z,11.37
2019-02-22T10:06:16.563Z,11.57
2019-02-22T10:08:47.040Z,11.55
2019-02-22T10:11:17.239Z,11.62
2019-02-22T10:13:48.528Z,11.72
2019-02-22T10:16:37.939Z,11.90
2019-02-22T10:19:08.177Z,11.93
2019-02-22T10:21:38.832Z,11.67
2019-02-22T10:24:28.308Z,11.61
2019-02-22T10:27:17.490Z,11.62
2019-02-22T10:29:47.872Z,11.53
2019-02-22T10:32:37.000Z,11.60
2019-02-22T10:35:07.413Z,11.52
2019-02-22T10:37:37.875Z,11.56
2019-02-22T10:40:08.062Z,11.81
2019-02-22T10:42:57.529Z,11.84
2019-02-22T10:45:27.664Z,11.83
2019-02-22T10:47:57.990Z,11.92
2019-02-22T10:50:47.426Z,11.98
2019-02-22T10:53:28.983Z,12.07
2019-02-22T10:55:59.215Z,11.98
2019-02-22T10:58:29.353Z,11.92
2019-02-22T11:00:59.795Z,11.86
2019-02-22T11:03:49.015Z,11.80
2019-02-22T11:06:19.146Z,11.86
2019-02-22T11:08:49.263Z,11.84
2019-02-22T11:11:38.544Z,11.88
2019-02-22T11:14:08.837Z,11.92
2019-02-22T11:16:58.043Z,11.92
2019-02-22T11:19:28.168Z,11.87
2019-02-22T11:21:58.398Z,11.85
2019-02-22T11:24:28.789Z,11.74
2019-02-22T11:26:59.047Z,11.62
2019-02-22T11:29:49.452Z,11.34
2019-02-22T11:32:29.793Z,11.29
2019-02-22T11:35:19.284Z,11.29
2019-02-22T11:37:49.435Z,11.29
2019-02-22T11:40:19.681Z,11.42
2019-02-22T11:43:08.875Z,11.52
2019-02-22T11:45:39.026Z,11.71
2019-02-22T11:48:09.646Z,11.87
2019-02-22T11:50:40.178Z,12.03
2019-02-22T11:53:12.692Z,12.21
2019-02-22T11:55:51.077Z,12.49
2019-02-22T11:58:21.188Z,12.80
2019-02-22T12:00:51.436Z,12.82
2019-02-22T12:03:24.933Z,12.81
2019-02-22T12:05:54.181Z,12.80
2019-02-22T12:08:43.313Z,12.78
2019-02-22T12:11:13.510Z,12.72
2019-02-22T12:13:43.643Z,12.68
2019-02-22T12:16:14.056Z,12.64
2019-02-22T12:18:44.266Z,12.43
2019-02-22T12:21:14.324Z,12.49
2019-02-22T12:23:44.473Z,12.57
2019-02-22T12:26:14.722Z,12.58
2019-02-22T12:28:44.836Z,12.60
2019-02-22T12:31:34.002Z,12.62
2019-02-22T12:34:23.161Z,12.71
2019-02-22T12:36:53.297Z,12.46
2019-02-22T12:39:23.823Z,12.51
2019-02-22T12:42:13.501Z,12.47
2019-02-22T12:44:43.602Z,12.26
2019-02-22T12:47:13.979Z,12.06
2019-02-22T12:49:45.586Z,11.91
2019-02-22T12:52:15.787Z,11.87
2019-02-22T12:54:46.126Z,11.82
2019-02-22T12:57:16.329Z,11.82
2019-02-22T12:59:46.483Z,11.86
2019-02-22T13:02:16.874Z,11.88
2019-02-22T13:04:47.061Z,11.83
2019-02-22T13:07:17.176Z,11.90
2019-02-22T13:10:06.558Z,11.88
2019-02-22T13:12:36.671Z,11.95
2019-02-22T13:15:14.207Z,11.95
2019-02-22T13:17:59.010Z,11.93
2019-02-22T13:20:29.126Z,11.99
2019-02-22T13:22:59.253Z,11.88
2019-02-22T13:25:29.829Z,11.86
2019-02-22T13:27:59.963Z,11.73
2019-02-22T13:30:49.109Z,11.65
2019-02-22T13:33:38.256Z,11.63
2019-02-22T13:36:08.882Z,11.54
2019-02-22T13:38:39.308Z,11.62
2019-02-22T13:41:09.462Z,11.57
2019-02-22T13:43:43.448Z,11.63
2019-02-22T13:46:13.841Z,11.61
2019-02-22T13:49:03.100Z,11.71
2019-02-22T13:51:34.127Z,11.72
2019-02-22T13:54:05.143Z,11.86
2019-02-22T13:56:35.445Z,11.79
2019-02-22T13:59:16.910Z,11.79
2019-02-22T14:01:47.332Z,11.83
2019-02-22T14:04:17.456Z,11.84
2019-02-22T14:06:47.591Z,11.90
2019-02-22T14:09:36.876Z,11.91
2019-02-22T14:12:26.291Z,11.97
2019-02-22T14:15:15.507Z,12.04
2019-02-22T14:18:04.663Z,12.10
2019-02-22T14:20:53.846Z,12.17
2019-02-22T14:23:24.055Z,12.32
2019-02-22T14:26:13.342Z,12.63
2019-02-22T14:28:43.444Z,12.78
2019-02-22T14:31:32.921Z,12.85
2019-02-22T14:34:03.035Z,12.97
2019-02-22T14:36:52.682Z,13.14
2019-02-22T14:39:41.892Z,13.39
2019-02-22T14:42:31.311Z,13.48
2019-02-22T14:45:20.749Z,13.28
2019-02-22T14:47:51.372Z,12.92
2019-02-22T14:50:40.531Z,12.62
2019-02-22T14:53:30.003Z,12.49
2019-02-22T14:56:19.169Z,12.31
2019-02-22T14:59:00.507Z,12.50
2019-02-22T15:01:42.157Z,13.51
2019-02-22T15:04:22.223Z,14.80
2019-02-22T15:06:52.459Z,15.83
2019-02-22T15:09:41.944Z,15.28
2019-02-22T15:12:31.121Z,14.50
2019-02-22T15:18:16.412Z,12.20
2019-02-22T15:20:46.561Z,12.56
2019-02-22T15:23:16.912Z,12.30
2019-02-22T15:29:03.002Z,12.64
2019-02-22T15:31:53.546Z,11.97
2019-02-22T15:34:42.817Z,11.99
2019-02-22T15:40:41.959Z,12.52
2019-02-22T15:43:13.136Z,12.43
2019-02-22T15:46:11.773Z,12.39
2019-02-22T15:48:55.240Z,12.20
2019-02-22T15:51:44.532Z,11.90
2019-02-22T15:54:33.750Z,11.77
2019-02-22T15:57:04.283Z,11.69
2019-02-22T15:59:35.793Z,11.68
2019-02-22T16:02:45.330Z,11.68
2019-02-22T16:05:22.676Z,11.80
2019-02-22T16:08:14.030Z,11.84
2019-02-22T16:10:44.797Z,11.95
2019-02-22T16:13:16.768Z,12.01
2019-02-22T16:16:06.916Z,12.02
2019-02-22T16:21:29.415Z,12.03
2019-02-22T16:24:01.146Z,11.94
2019-02-22T16:26:32.005Z,12.00
2019-02-22T16:29:02.372Z,11.95
2019-02-22T16:31:32.901Z,11.87
2019-02-22T16:34:03.370Z,11.76
2019-02-22T16:36:33.569Z,11.69
2019-02-22T16:39:06.123Z,11.62
2019-02-22T16:41:36.483Z,11.55
2019-02-22T16:44:07.185Z,11.48
2019-02-22T16:46:37.592Z,11.38
2019-02-22T16:49:26.790Z,11.28
2019-02-22T16:52:06.297Z,11.13
2019-02-22T16:54:55.551Z,10.98
2019-02-22T16:57:44.956Z,10.85
2019-02-22T17:03:15.521Z,10.64
2019-02-22T17:05:53.948Z,10.59
2019-02-22T17:09:08.133Z,10.47
2019-02-22T17:11:39.399Z,10.28
2019-02-22T17:16:55.054Z,9.97
2019-02-22T17:19:25.377Z,9.76
2019-02-22T17:21:55.920Z,9.69
2019-02-22T17:24:27.504Z,9.59
2019-02-22T17:27:01.362Z,9.59
2019-02-22T17:29:32.844Z,9.37
2019-02-22T17:32:03.156Z,9.23
2019-02-22T17:34:33.409Z,9.09
2019-02-22T17:37:04.653Z,8.96
2019-02-22T17:39:34.826Z,8.85
2019-02-22T17:42:05.049Z,8.72
2019-02-22T17:44:35.360Z,8.66
2019-02-22T17:47:24.884Z,8.53
2019-02-22T17:52:44.460Z,8.19
2019-02-22T17:57:52.374Z,8.29
2019-02-22T18:00:23.428Z,8.41
2019-02-22T18:02:53.693Z,8.30
2019-02-22T18:05:24.427Z,8.20
2019-02-22T18:08:13.656Z,8.14
2019-02-22T18:10:45.367Z,8.11
2019-02-22T18:13:16.178Z,7.98
2019-02-22T18:15:46.746Z,7.91
2019-02-22T18:18:17.038Z,7.79
2019-02-22T18:20:49.530Z,7.70
2019-02-22T18:23:39.064Z,7.56
2019-02-22T18:26:28.454Z,7.46
2019-02-22T18:28:58.923Z,7.26
2019-02-22T18:31:30.738Z,7.20
2019-02-22T18:34:21.246Z,7.21
2019-02-22T18:36:53.939Z,7.22
2019-02-22T18:42:23.232Z,7.11
2019-02-22T18:44:53.789Z,7.09
2019-02-22T18:47:24.258Z,6.93
2019-02-22T18:50:14.058Z,6.16
2019-02-22T18:52:44.708Z,6.83
2019-02-22T18:58:25.050Z,6.65
2019-02-22T19:00:55.553Z,6.60
2019-02-22T19:03:28.158Z,6.48
2019-02-22T19:06:17.304Z,6.48
2019-02-22T19:08:47.615Z,6.40
2019-02-22T19:11:36.975Z,6.39
2019-02-22T19:16:39.618Z,6.32
2019-02-22T19:19:09.740Z,6.36
2019-02-22T19:21:59.318Z,6.25
2019-02-22T19:24:29.570Z,6.13
2019-02-22T19:26:59.939Z,6.01
2019-02-22T19:29:51.849Z,5.99
2019-02-22T19:32:22.415Z,5.95
2019-02-22T19:35:11.624Z,5.84
2019-02-22T19:37:41.854Z,5.80
2019-02-22T19:40:14.205Z,5.74
2019-02-22T19:42:56.145Z,5.66
2019-02-22T19:45:26.845Z,5.68
2019-02-22T19:48:17.656Z,5.68
2019-02-22T19:50:50.132Z,5.65
2019-02-22T19:53:59.550Z,5.59
2019-02-22T19:56:29.927Z,5.59
2019-02-22T19:59:20.444Z,5.42
2019-02-22T20:02:12.460Z,5.42
2019-02-22T20:05:02.859Z,5.42
2019-02-22T20:07:54.476Z,5.42
2019-02-22T20:10:27.673Z,5.34
2019-02-22T20:13:19.734Z,5.32
2019-02-22T20:16:28.268Z,5.25
2019-02-22T20:19:36.943Z,5.20
2019-02-22T20:22:27.773Z,5.12
2019-02-22T20:25:17.844Z,5.02
2019-02-22T20:27:48.498Z,4.95
2019-02-22T20:30:22.493Z,4.94
2019-02-22T20:36:08.737Z,4.89
2019-02-22T20:39:02.940Z,4.06
2019-02-22T20:41:52.709Z,4.87
2019-02-22T20:47:33.502Z,4.99
2019-02-22T20:52:44.310Z,4.85
2019-02-22T20:55:34.459Z,4.81
2019-02-22T20:58:23.730Z,3.93
2019-02-22T21:04:41.559Z,4.59
2019-02-22T21:07:13.422Z,4.38
2019-02-22T21:10:02.875Z,4.35
2019-02-22T21:12:33.987Z,4.27
2019-02-22T21:15:23.570Z,4.21
2019-02-22T21:17:54.174Z,3.37
2019-02-22T21:20:43.370Z,4.17
2019-02-22T21:23:13.661Z,4.16
2019-02-22T21:28:25.083Z,4.27
2019-02-22T21:30:55.505Z,4.24
2019-02-22T21:34:15.532Z,4.09
2019-02-22T21:36:36.513Z,4.12
2019-02-22T21:39:07.247Z,4.06
2019-02-22T21:41:56.898Z,3.99
2019-02-22T21:44:27.084Z,3.94
2019-02-22T21:47:16.383Z,3.97
2019-02-22T21:49:46.803Z,3.90
2019-02-22T21:52:36.241Z,3.78
2019-02-22T21:55:25.490Z,3.79
2019-02-22T21:58:35.053Z,3.72
2019-02-22T22:01:24.276Z,3.65
2019-02-22T22:03:54.503Z,3.70
2019-02-22T22:06:43.959Z,3.65
2019-02-22T22:09:33.485Z,3.63
2019-02-22T22:12:03.704Z,3.58
2019-02-22T22:14:53.014Z,3.63
2019-02-22T22:17:23.471Z,3.72
2019-02-22T22:20:12.865Z,3.82
2019-02-22T22:23:02.331Z,3.79
2019-02-22T22:26:10.501Z,3.69
2019-02-22T22:29:00.081Z,3.71
2019-02-22T22:31:50.105Z,3.74
2019-02-22T22:34:39.702Z,3.67
2019-02-22T22:37:28.823Z,3.67
2019-02-22T22:40:18.266Z,3.57
2019-02-22T22:43:07.575Z,3.55
2019-02-22T22:45:37.952Z,3.48
2019-02-22T22:48:08.443Z,3.43
2019-02-22T22:50:57.677Z,3.37
2019-02-22T22:53:27.951Z,3.31
2019-02-22T22:56:17.144Z,3.29
2019-02-22T22:59:06.638Z,3.20
2019-02-22T23:01:37.189Z,3.27
2019-02-22T23:04:07.746Z,3.21
2019-02-22T23:09:30.676Z,3.36
2019-02-22T23:12:01.057Z,3.27
2019-02-22T23:14:51.564Z,3.22
2019-02-22T23:17:41.085Z,3.18
2019-02-22T23:20:30.555Z,3.22
2019-02-22T23:23:20.045Z,3.07
2019-02-22T23:25:50.256Z,2.62
2019-02-22T23:28:39.872Z,2.97
2019-02-22T23:31:29.059Z,3.01
2019-02-22T23:33:59.195Z,2.95
2019-02-22T23:36:48.628Z,2.95
2019-02-22T23:39:19.161Z,3.10
2019-02-22T23:42:08.390Z,3.08
2019-02-22T23:44:57.710Z,3.15
2019-02-22T23:47:47.266Z,2.88
2019-02-22T23:50:36.893Z,2.20
2019-02-22T23:53:26.381Z,3.05
2019-02-22T23:56:15.828Z,2.97
2019-02-22T23:59:05.001Z,2.94
